createdAt,value
2022-12-06T13:45:03.032Z,2.35
2022-12-06T13:47:41.733Z,1.60
2022-12-06T13:50:29.401Z,1.70
2022-12-06T13:53:04.206Z,1.80
2022-12-06T13:55:59.694Z,2.03
2022-12-06T13:58:49.859Z,2.13
2022-12-06T14:01:39.989Z,1.90
2022-12-06T14:06:56.582Z,2.72
2022-12-06T14:09:25.734Z,3.45
2022-12-06T14:11:54.370Z,1.50
2022-12-06T14:14:23.353Z,1.70
2022-12-06T14:16:53.846Z,1.33
2022-12-06T14:19:23.034Z,1.48
2022-12-06T14:21:56.919Z,1.48
2022-12-06T14:24:26.335Z,1.40
2022-12-06T14:26:54.316Z,2.00
2022-12-06T14:29:23.611Z,2.17
2022-12-06T14:31:52.260Z,2.30
2022-12-06T14:34:26.838Z,1.98
2022-12-06T14:36:57.358Z,1.88
2022-12-06T14:39:26.352Z,2.47
2022-12-06T14:42:12.246Z,2.10
2022-12-06T14:44:40.110Z,2.83
2022-12-06T14:47:08.440Z,1.90
2022-12-06T14:49:54.477Z,2.25
2022-12-06T14:52:28.099Z,1.73
2022-12-06T14:55:09.148Z,2.47
2022-12-06T14:57:39.736Z,2.63
2022-12-06T15:00:16.100Z,2.63
2022-12-06T15:03:00.182Z,2.90
2022-12-06T15:05:32.235Z,5.88
2022-12-06T15:08:18.300Z,2.80
2022-12-06T15:10:54.338Z,2.63
2022-12-06T15:13:22.969Z,2.55
2022-12-06T15:16:00.935Z,2.65
2022-12-06T15:18:29.483Z,2.58
2022-12-06T15:20:57.433Z,2.58
2022-12-06T15:23:29.762Z,2.95
2022-12-06T15:25:57.860Z,3.05
2022-12-06T15:28:25.711Z,2.75
2022-12-06T15:30:54.123Z,2.25
2022-12-06T15:33:22.657Z,3.05
2022-12-06T15:35:50.713Z,3.67
2022-12-06T15:38:19.395Z,2.95
2022-12-06T15:40:49.977Z,4.63
2022-12-06T15:43:23.813Z,3.10
2022-12-06T15:45:51.545Z,3.25
2022-12-06T15:50:47.693Z,3.30
2022-12-06T15:53:16.077Z,3.15
2022-12-06T15:55:43.837Z,3.00
2022-12-06T16:00:40.716Z,2.70
2022-12-06T16:03:08.925Z,3.22
2022-12-06T16:05:36.851Z,3.28
2022-12-06T16:08:04.909Z,3.60
2022-12-06T16:11:09.608Z,3.42
2022-12-06T16:13:24.511Z,2.90
2022-12-06T16:15:53.963Z,2.78
2022-12-06T16:18:21.985Z,3.10
2022-12-06T16:20:50.138Z,2.88
2022-12-06T16:24:04.546Z,2.67
2022-12-06T16:26:24.066Z,2.75
2022-12-06T16:28:51.881Z,2.85
2022-12-06T16:31:21.439Z,3.70
2022-12-06T16:33:49.324Z,3.17
2022-12-06T16:36:19.084Z,2.92
2022-12-06T16:38:48.033Z,2.95
2022-12-06T16:41:19.618Z,2.63
2022-12-06T16:43:47.654Z,3.17
2022-12-06T16:46:21.039Z,3.25
2022-12-06T16:48:55.651Z,2.55
2022-12-06T16:51:24.115Z,2.55
2022-12-06T16:53:51.936Z,3.17
2022-12-06T16:56:19.965Z,3.25
2022-12-06T16:58:47.727Z,3.30
2022-12-06T17:01:21.149Z,3.30
2022-12-06T17:03:54.780Z,3.30
2022-12-06T17:06:23.024Z,3.05
2022-12-06T17:08:51.550Z,3.28
2022-12-06T17:11:37.536Z,3.42
2022-12-06T17:14:06.450Z,3.42
2022-12-06T17:16:35.054Z,3.65
2022-12-06T17:19:05.334Z,3.55
2022-12-06T17:21:33.896Z,3.70
2022-12-06T17:24:02.616Z,4.10
2022-12-06T17:26:32.799Z,6.28
2022-12-06T17:29:00.783Z,4.72
2022-12-06T17:31:29.016Z,3.85
2022-12-06T17:33:58.873Z,4.15
2022-12-06T17:36:28.067Z,3.67
2022-12-06T17:38:56.868Z,4.65
2022-12-06T17:41:45.846Z,4.07
2022-12-06T17:44:17.934Z,3.97
2022-12-06T17:46:45.787Z,4.60
2022-12-06T17:49:14.548Z,4.82
2022-12-06T17:51:43.791Z,4.68
2022-12-06T17:54:11.645Z,4.70
2022-12-06T17:56:40.424Z,4.72
2022-12-06T17:59:09.398Z,4.40
2022-12-06T18:02:06.103Z,4.82
2022-12-06T18:04:26.225Z,4.82
2022-12-06T18:06:55.411Z,4.60
2022-12-06T18:09:23.434Z,3.85
2022-12-06T18:11:51.754Z,4.05
2022-12-06T18:14:19.653Z,3.83
2022-12-06T18:16:48.474Z,4.35
2022-12-06T18:19:17.423Z,3.95
2022-12-06T18:21:45.222Z,4.00
2022-12-06T18:26:51.433Z,3.75
2022-12-06T18:29:20.610Z,3.88
2022-12-06T18:31:48.558Z,4.50
2022-12-06T18:34:16.676Z,4.13
2022-12-06T18:36:44.559Z,4.47
2022-12-06T18:41:43.161Z,4.60
2022-12-06T18:44:12.765Z,4.78
2022-12-06T18:46:42.264Z,4.78
2022-12-06T18:49:11.685Z,4.63
2022-12-06T18:51:39.585Z,5.43
2022-12-06T18:54:08.186Z,5.15
2022-12-06T18:56:36.649Z,5.40
2022-12-06T18:59:05.432Z,5.60
2022-12-06T19:01:35.348Z,5.60
2022-12-06T19:04:04.087Z,6.50
2022-12-06T19:06:32.824Z,7.85
2022-12-06T19:09:01.507Z,9.43
2022-12-06T19:11:29.703Z,7.85
2022-12-06T19:13:58.115Z,7.78
2022-12-06T19:16:27.493Z,7.18
2022-12-06T19:18:57.370Z,8.35
2022-12-06T19:21:25.462Z,7.65
2022-12-06T19:23:53.708Z,6.15
2022-12-06T19:26:21.830Z,6.10
2022-12-06T19:28:49.617Z,9.30
2022-12-06T19:31:17.508Z,7.47
2022-12-06T19:33:46.338Z,9.20
2022-12-06T19:36:16.539Z,11.15
2022-12-06T19:38:44.801Z,34.33
2022-12-06T19:41:14.027Z,13.73
2022-12-06T19:43:59.716Z,8.98
2022-12-06T19:46:28.949Z,7.82
2022-12-06T19:48:57.383Z,7.57
2022-12-06T19:51:29.145Z,7.90
2022-12-06T19:53:58.078Z,8.02
2022-12-06T19:56:26.224Z,7.28
2022-12-06T19:58:54.592Z,7.50
2022-12-06T20:01:25.050Z,7.75
2022-12-06T20:03:54.242Z,7.95
2022-12-06T20:06:23.013Z,7.70
2022-12-06T20:08:52.914Z,7.88
2022-12-06T20:11:39.197Z,7.72
2022-12-06T20:14:08.405Z,8.52
2022-12-06T20:16:36.920Z,9.75
2022-12-06T20:19:04.667Z,8.43
2022-12-06T20:21:32.565Z,10.00
2022-12-06T20:24:02.186Z,9.65
2022-12-06T20:26:31.353Z,9.90
2022-12-06T20:28:59.148Z,8.68
2022-12-06T20:31:28.002Z,9.30
2022-12-06T20:33:56.175Z,10.35
2022-12-06T20:36:24.337Z,10.48
2022-12-06T20:38:52.439Z,8.80
2022-12-06T20:41:22.258Z,9.55
2022-12-06T20:43:51.246Z,9.85
2022-12-06T20:46:20.343Z,10.80
2022-12-06T20:48:48.309Z,10.35
2022-12-06T20:53:43.736Z,10.15
2022-12-06T20:56:12.806Z,11.18
2022-12-06T20:58:42.090Z,11.10
2022-12-06T21:01:13.277Z,11.85
2022-12-06T21:03:41.131Z,11.30
2022-12-06T21:06:10.051Z,12.77
2022-12-06T21:08:38.081Z,13.23
2022-12-06T21:11:23.102Z,14.73
2022-12-06T21:13:53.486Z,15.15
2022-12-06T21:16:22.336Z,15.38
2022-12-06T21:18:55.000Z,15.90
2022-12-06T21:21:24.053Z,16.35
2022-12-06T21:23:51.895Z,16.83
2022-12-06T21:26:19.669Z,18.17
2022-12-06T21:31:16.357Z,17.55
2022-12-06T21:33:44.219Z,17.73
2022-12-06T21:36:12.612Z,17.40
2022-12-06T21:38:40.576Z,18.30
2022-12-06T21:41:08.966Z,18.65
2022-12-06T21:43:37.534Z,17.55
2022-12-06T21:46:06.461Z,15.10
2022-12-06T21:48:36.280Z,15.35
2022-12-06T21:51:04.690Z,17.17
2022-12-06T21:53:35.334Z,17.30
2022-12-06T21:56:06.119Z,16.15
2022-12-06T21:58:34.028Z,16.33
2022-12-06T22:01:04.979Z,17.13
2022-12-06T22:03:33.115Z,15.45
2022-12-06T22:06:05.754Z,14.48
2022-12-06T22:08:33.531Z,16.88
2022-12-06T22:11:01.473Z,17.08
2022-12-06T22:15:56.804Z,14.55
2022-12-06T22:18:24.690Z,20.45
2022-12-06T22:20:59.353Z,20.00
2022-12-06T22:23:28.629Z,22.40
2022-12-06T22:25:56.542Z,23.10
2022-12-06T22:28:24.529Z,23.75
2022-12-06T22:30:52.304Z,22.60
2022-12-06T22:33:21.219Z,33.05
2022-12-06T22:35:49.054Z,23.02
2022-12-06T22:38:16.811Z,22.13
2022-12-06T22:43:13.599Z,24.42
2022-12-06T22:45:41.386Z,23.25
2022-12-06T22:48:09.132Z,21.70
2022-12-06T22:53:04.666Z,22.15
2022-12-06T22:55:32.563Z,21.40
2022-12-06T22:58:00.504Z,20.45
2022-12-06T23:00:29.857Z,20.70
2022-12-06T23:02:59.305Z,18.77
2022-12-06T23:05:27.105Z,19.15
2022-12-06T23:10:25.478Z,18.80
2022-12-06T23:12:53.278Z,18.35
2022-12-06T23:15:21.199Z,16.98
2022-12-06T23:17:50.459Z,17.13
2022-12-06T23:20:18.413Z,17.15
2022-12-06T23:22:46.281Z,17.20
2022-12-06T23:25:14.052Z,16.50
2022-12-06T23:27:42.785Z,16.70
2022-12-06T23:30:11.002Z,16.02
2022-12-06T23:32:38.822Z,14.65
2022-12-06T23:35:08.402Z,15.02
2022-12-06T23:37:36.194Z,15.95
2022-12-06T23:40:04.135Z,17.35
2022-12-06T23:42:31.857Z,16.35
2022-12-06T23:47:27.221Z,18.10
2022-12-06T23:52:23.927Z,15.57
2022-12-06T23:54:51.694Z,16.00
2022-12-06T23:57:19.539Z,16.83
2022-12-06T23:59:47.369Z,15.68
